CheckWX is a tool to help pilots better visualize weather data.  It is not intended as a substitute for an official pre-flight weather briefing.

20:25:04 UTC

KNOW METAR
Port Angeles CGas Airport
Port Angeles, Washington, USA
Current

35 mins ago

KNOW 201950Z AUTO 09004KT 10SM CLR 12/06 A3008 RMK AO2 T01220062
Observed
Apr-20 @ 19:50 UTC
Wind
  • 090° at 4 KTS
Visibility
10 SM
Flight Rules
VFR
Cloud Levels
  • Clear skies
Temperature
12°C / 54°F
Dewpoint
C / 43°F
Humidity
67%
Altimeter
30.08" Hg
Pressure
1018.62 hPa
Previous

55 mins ago

KNOW 201930Z AUTO 03003KT 10SM CLR 11/05 A3008 RMK AO2 T01140053
Observed
Apr-20 @ 19:30 UTC
Wind
  • 030° at 3 KTS
Visibility
10 SM
Flight Rules
VFR
Cloud Levels
  • Clear skies
Temperature
11°C / 52°F
Dewpoint
C / 41°F
Humidity
67%
Altimeter
30.08" Hg
Pressure
1018.62 hPa
Previous

1 hour ago

KNOW 201910Z AUTO 00000KT 10SM CLR 12/06 A3008 RMK AO2 T01190057
Observed
Apr-20 @ 19:10 UTC
Visibility
10 SM
Flight Rules
VFR
Cloud Levels
  • Clear skies
Temperature
12°C / 54°F
Dewpoint
C / 43°F
Humidity
67%
Altimeter
30.08" Hg
Pressure
1018.62 hPa